Van Burensburg, Illinois
Current Conditions -  °F | °C
As of 7:15 AM on Thursday 23 Oct 2014 (Local Time) from K3LF Reporting Station
Clear Clear  
Wind Chill: 35°   Ceiling: Unl
Heat Index: 39°   Visibility: 7mi
Dew Point: 37°   Wind: 5mph
Humidity: 92%   Direction: 150°SSE
Pressure: 30.21"   Gusts: NA
Location:  39.1009°N, 89.3067°W
Report Text: K3LF 231215Z AUTO 15004KT 7SM CLR 04/03 A3021 RMK AO2 T00370025
Loading
Personal Weather Stations






























Interactive Weather Map
Tropical Storm Tracking
New forecast layout! Learn more

10-Day Weather Forecast

Advertisements
Track Severe Weather on mobile